createdAt,value
2018-12-16T00:01:02.370Z,98463.72
2018-12-16T00:03:30.499Z,98463.77
2018-12-16T00:05:58.873Z,98456.81
2018-12-16T00:08:27.053Z,98453.67
2018-12-16T00:10:55.106Z,98450.34
2018-12-16T00:13:23.379Z,98445.86
2018-12-16T00:15:51.471Z,98446.44
2018-12-16T00:18:19.547Z,98435.23
2018-12-16T00:20:47.609Z,98434.58
2018-12-16T00:23:15.750Z,98423.63
2018-12-16T00:25:43.811Z,98416.36
2018-12-16T00:28:11.964Z,98406.08
2018-12-16T00:30:39.994Z,98410.77
2018-12-16T00:33:08.140Z,98398.50
2018-12-16T00:35:36.956Z,98389.01
2018-12-16T00:38:05.021Z,98380.81
2018-12-16T00:40:33.111Z,98376.54
2018-12-16T00:43:01.276Z,98381.24
2018-12-16T00:45:29.355Z,98385.53
2018-12-16T00:47:57.434Z,98390.02
2018-12-16T00:50:25.548Z,98399.22
2018-12-16T00:52:54.013Z,98389.09
2018-12-16T00:55:22.554Z,98385.05
2018-12-16T00:57:51.425Z,98384.87
2018-12-16T01:00:19.621Z,98394.25
2018-12-16T01:02:47.695Z,98396.73
2018-12-16T01:05:16.008Z,98397.08
2018-12-16T01:07:44.051Z,98403.25
2018-12-16T01:10:12.770Z,98414.00
2018-12-16T01:12:40.999Z,98421.72
2018-12-16T01:15:09.378Z,98424.13
2018-12-16T01:17:37.455Z,98421.32
2018-12-16T01:20:06.909Z,98425.35
2018-12-16T01:22:34.992Z,98417.80
2018-12-16T01:25:03.095Z,98413.46
2018-12-16T01:27:31.206Z,98423.53
2018-12-16T01:29:59.385Z,98422.42
2018-12-16T01:32:27.843Z,98418.71
2018-12-16T01:34:55.934Z,98414.84
2018-12-16T01:37:23.975Z,98410.20
2018-12-16T01:39:52.447Z,98414.78
2018-12-16T01:42:20.576Z,98408.94
2018-12-16T01:44:48.670Z,98401.09
2018-12-16T01:47:16.745Z,98400.79
2018-12-16T01:49:45.106Z,98396.92
2018-12-16T01:52:13.174Z,98397.14
2018-12-16T01:54:41.809Z,98398.14
2018-12-16T01:57:09.870Z,98390.44
2018-12-16T01:59:37.956Z,98388.78
2018-12-16T02:02:06.279Z,98383.82
2018-12-16T02:04:34.507Z,98375.60
2018-12-16T02:07:02.663Z,98367.32
2018-12-16T02:09:30.715Z,98364.45
2018-12-16T02:11:58.796Z,98364.63
2018-12-16T02:14:26.880Z,98354.45
2018-12-16T02:16:55.262Z,98346.47
2018-12-16T02:19:23.330Z,98344.62
2018-12-16T02:21:51.419Z,98338.39
2018-12-16T02:24:19.463Z,98319.17
2018-12-16T02:26:47.603Z,98308.98
2018-12-16T02:29:15.697Z,98312.73
2018-12-16T02:31:43.747Z,98293.30
2018-12-16T02:34:11.814Z,98285.37
2018-12-16T02:36:40.039Z,98274.12
2018-12-16T02:39:08.606Z,98263.21
2018-12-16T02:41:37.186Z,98257.53
2018-12-16T02:44:05.272Z,98254.44
2018-12-16T02:46:33.345Z,98252.36
2018-12-16T02:49:01.712Z,98251.15
2018-12-16T02:51:29.886Z,98254.51
2018-12-16T02:53:57.956Z,98252.09
2018-12-16T02:56:26.317Z,98239.79
2018-12-16T02:58:54.503Z,98232.30
2018-12-16T03:01:22.856Z,98223.94
2018-12-16T03:03:51.068Z,98217.67
2018-12-16T03:06:19.524Z,98203.41
2018-12-16T03:08:47.624Z,98205.41
2018-12-16T03:11:16.006Z,98198.55
2018-12-16T03:13:44.081Z,98192.97
2018-12-16T03:16:12.159Z,98184.97
2018-12-16T03:18:40.308Z,98176.94
2018-12-16T03:21:08.459Z,98164.17
2018-12-16T03:23:37.392Z,98161.04
2018-12-16T03:26:05.546Z,98157.64
2018-12-16T03:28:33.731Z,98159.61
2018-12-16T03:31:01.794Z,98149.55
2018-12-16T03:33:29.993Z,98153.89
2018-12-16T03:35:58.034Z,98142.16
2018-12-16T03:38:26.106Z,98139.86
2018-12-16T03:40:54.239Z,98135.85
2018-12-16T03:43:22.330Z,98141.53
2018-12-16T03:45:50.403Z,98139.19
2018-12-16T03:48:18.612Z,98132.30
2018-12-16T03:50:46.698Z,98138.38
2018-12-16T03:53:19.728Z,98137.36
2018-12-16T03:55:45.091Z,98130.42
2018-12-16T03:58:13.247Z,98137.77
2018-12-16T04:00:41.315Z,98139.70
2018-12-16T04:03:09.382Z,98144.18
2018-12-16T04:05:37.454Z,98138.99
2018-12-16T04:08:05.615Z,98149.01
2018-12-16T04:10:33.806Z,98150.39
2018-12-16T04:13:01.854Z,98158.22
2018-12-16T04:15:30.335Z,98161.56
2018-12-16T04:17:58.403Z,98159.02
2018-12-16T04:20:26.476Z,98161.56
2018-12-16T04:22:54.570Z,98162.59
2018-12-16T04:25:22.823Z,98158.28
2018-12-16T04:27:50.999Z,98148.34
2018-12-16T04:30:19.080Z,98138.82
2018-12-16T04:32:47.168Z,98125.09
2018-12-16T04:35:15.343Z,98128.78
2018-12-16T04:37:43.425Z,98124.33
2018-12-16T04:40:11.596Z,98121.02
2018-12-16T04:42:39.673Z,98109.63
2018-12-16T04:45:07.803Z,98105.73
2018-12-16T04:47:36.594Z,98109.33
2018-12-16T04:50:05.627Z,98123.55
2018-12-16T04:52:33.713Z,98123.10
2018-12-16T04:55:01.961Z,98118.81
2018-12-16T04:57:30.048Z,98115.89
2018-12-16T04:59:58.178Z,98123.47
2018-12-16T05:02:26.379Z,98130.14
2018-12-16T05:04:54.462Z,98121.52
2018-12-16T05:07:22.514Z,98123.72
2018-12-16T05:09:50.589Z,98131.45
2018-12-16T05:12:18.766Z,98131.52
2018-12-16T05:14:46.838Z,98139.48
2018-12-16T05:17:14.924Z,98142.20
2018-12-16T05:19:43.002Z,98143.27
2018-12-16T05:22:11.100Z,98141.21
2018-12-16T05:24:39.203Z,98137.78
2018-12-16T05:27:07.259Z,98131.00
2018-12-16T05:29:35.363Z,98122.47
2018-12-16T05:32:03.419Z,98118.06
2018-12-16T05:34:31.519Z,98117.44
2018-12-16T05:36:59.607Z,98118.67
2018-12-16T05:39:27.654Z,98120.42
2018-12-16T05:41:56.129Z,98120.84
2018-12-16T05:44:24.235Z,98119.91
2018-12-16T05:46:52.319Z,98120.69
2018-12-16T05:49:20.396Z,98118.43
2018-12-16T05:51:48.530Z,98121.34
2018-12-16T05:54:16.886Z,98129.20
2018-12-16T05:56:44.967Z,98129.09
2018-12-16T05:59:13.355Z,98120.25
2018-12-16T06:01:41.518Z,98113.19
2018-12-16T06:04:09.671Z,98103.42
2018-12-16T06:06:37.854Z,98105.91
2018-12-16T06:09:06.323Z,98106.02
2018-12-16T06:11:34.446Z,98110.61
2018-12-16T06:14:02.599Z,98112.52
2018-12-16T06:16:30.683Z,98105.48
2018-12-16T06:18:58.767Z,98109.30
2018-12-16T06:21:26.823Z,98107.16
2018-12-16T06:23:55.780Z,98108.11
2018-12-16T06:26:24.282Z,98112.51
2018-12-16T06:28:52.351Z,98111.04
2018-12-16T06:31:20.406Z,98109.80
2018-12-16T06:33:48.475Z,98108.86
2018-12-16T06:36:16.850Z,98114.77
2018-12-16T06:38:45.059Z,98113.72
2018-12-16T06:41:13.297Z,98110.47
2018-12-16T06:43:41.423Z,98110.39
2018-12-16T06:46:09.471Z,98115.19
2018-12-16T06:48:37.540Z,98112.36
2018-12-16T06:51:05.610Z,98119.17
2018-12-16T06:53:33.686Z,98119.58
2018-12-16T06:56:06.668Z,98115.75
2018-12-16T06:58:31.882Z,98116.41
2018-12-16T07:01:00.023Z,98115.98
2018-12-16T07:03:28.083Z,98123.64
2018-12-16T07:05:56.155Z,98121.34
2018-12-16T07:08:24.236Z,98119.00
2018-12-16T07:10:52.423Z,98120.13
2018-12-16T07:13:20.538Z,98125.80
2018-12-16T07:15:48.688Z,98136.44
2018-12-16T07:18:16.807Z,98137.44
2018-12-16T07:20:44.995Z,98140.86
2018-12-16T07:23:13.106Z,98150.22
2018-12-16T07:25:42.067Z,98137.98
2018-12-16T07:28:10.169Z,98145.77
2018-12-16T07:30:38.451Z,98154.94
2018-12-16T07:33:06.623Z,98155.66
2018-12-16T07:35:35.540Z,98159.77
2018-12-16T07:38:03.714Z,98165.18
2018-12-16T07:40:31.873Z,98165.77
2018-12-16T07:43:00.164Z,98171.05
2018-12-16T07:45:28.290Z,98165.62
2018-12-16T07:47:56.383Z,98169.41
2018-12-16T07:50:24.643Z,98166.30
2018-12-16T07:52:52.703Z,98174.34
2018-12-16T07:55:20.786Z,98183.51
2018-12-16T07:57:49.142Z,98172.72
2018-12-16T08:00:17.332Z,98174.73
2018-12-16T08:02:45.473Z,98182.62
2018-12-16T08:05:13.671Z,98184.73
2018-12-16T08:07:41.971Z,98191.97
2018-12-16T08:10:10.127Z,98191.89
2018-12-16T08:12:38.436Z,98190.38
2018-12-16T08:15:06.990Z,98189.30
2018-12-16T08:17:35.170Z,98193.39
2018-12-16T08:20:03.667Z,98192.34
2018-12-16T08:22:31.749Z,98191.34
2018-12-16T08:24:59.908Z,98194.56
2018-12-16T08:27:27.974Z,98187.42
2018-12-16T08:29:56.054Z,98195.58
2018-12-16T08:32:24.223Z,98196.78
2018-12-16T08:34:52.307Z,98195.19
2018-12-16T08:37:20.354Z,98198.37
2018-12-16T08:39:48.407Z,98191.80
2018-12-16T08:42:16.611Z,98202.16
2018-12-16T08:44:44.660Z,98201.61
2018-12-16T08:47:12.907Z,98200.13
2018-12-16T08:49:41.226Z,98205.75
2018-12-16T08:52:09.458Z,98203.48
2018-12-16T08:54:37.562Z,98208.08
2018-12-16T08:57:05.663Z,98205.99
2018-12-16T08:59:33.722Z,98210.77
2018-12-16T09:02:01.766Z,98213.70
2018-12-16T09:04:29.871Z,98211.58
2018-12-16T09:06:58.243Z,98217.07
2018-12-16T09:09:26.819Z,98221.52
2018-12-16T09:11:54.971Z,98216.81
2018-12-16T09:14:23.090Z,98225.98
2018-12-16T09:16:51.187Z,98228.02
2018-12-16T09:19:19.240Z,98238.75
2018-12-16T09:21:47.390Z,98237.00
2018-12-16T09:24:15.442Z,98231.45
2018-12-16T09:26:43.535Z,98230.91
2018-12-16T09:29:11.603Z,98228.79
2018-12-16T09:31:39.674Z,98231.55
2018-12-16T09:34:07.739Z,98226.92
2018-12-16T09:36:36.227Z,98233.31
2018-12-16T09:39:06.663Z,98233.06
2018-12-16T09:41:34.827Z,98229.69
2018-12-16T09:44:03.094Z,98232.37
2018-12-16T09:46:31.279Z,98234.28
2018-12-16T09:48:59.457Z,98237.84
2018-12-16T09:51:27.627Z,98234.91
2018-12-16T09:53:55.667Z,98230.21
2018-12-16T09:56:23.981Z,98231.83
2018-12-16T09:58:52.051Z,98236.64
2018-12-16T10:01:20.123Z,98221.22
2018-12-16T10:03:48.206Z,98219.19
2018-12-16T10:06:16.266Z,98215.73
2018-12-16T10:08:44.410Z,98210.23
2018-12-16T10:11:12.498Z,98223.53
2018-12-16T10:13:40.753Z,98221.94
2018-12-16T10:16:08.821Z,98221.00
2018-12-16T10:18:37.007Z,98225.16
2018-12-16T10:21:05.099Z,98235.58
2018-12-16T10:23:33.171Z,98234.80
2018-12-16T10:26:01.259Z,98233.05
2018-12-16T10:28:29.290Z,98234.02
2018-12-16T10:30:57.452Z,98234.17
2018-12-16T10:33:25.554Z,98229.02
2018-12-16T10:35:53.811Z,98225.70
2018-12-16T10:38:21.988Z,98222.53
2018-12-16T10:40:50.079Z,98225.78
2018-12-16T10:43:18.123Z,98225.45
2018-12-16T10:45:46.295Z,98224.44
2018-12-16T10:48:14.397Z,98227.24
2018-12-16T10:50:42.479Z,98237.91
2018-12-16T10:53:10.540Z,98242.81
2018-12-16T10:55:38.623Z,98239.73
2018-12-16T10:58:06.673Z,98232.92
2018-12-16T11:00:36.589Z,98237.90
2018-12-16T11:03:04.734Z,98228.47
2018-12-16T11:05:32.959Z,98221.31
2018-12-16T11:08:01.003Z,98213.72
2018-12-16T11:10:29.540Z,98214.83
2018-12-16T11:12:58.124Z,98212.03
2018-12-16T11:15:26.146Z,98212.73
2018-12-16T11:17:54.261Z,98210.78
2018-12-16T11:20:22.339Z,98211.02
2018-12-16T11:22:50.428Z,98205.40
2018-12-16T11:25:18.957Z,98204.64
2018-12-16T11:27:47.010Z,98200.62
2018-12-16T11:30:15.265Z,98200.33
2018-12-16T11:32:43.458Z,98205.67
2018-12-16T11:35:11.539Z,98205.41
2018-12-16T11:37:39.580Z,98211.48
2018-12-16T11:40:07.959Z,98210.81
2018-12-16T11:42:36.043Z,98199.40
2018-12-16T11:45:06.186Z,98196.84
2018-12-16T11:47:34.242Z,98192.02
2018-12-16T11:50:02.322Z,98188.16
2018-12-16T11:52:30.401Z,98175.42
2018-12-16T11:54:58.487Z,98173.28
2018-12-16T11:57:26.554Z,98174.00
2018-12-16T11:59:54.687Z,98163.86
2018-12-16T12:02:22.784Z,98157.80
2018-12-16T12:04:50.855Z,98157.56
2018-12-16T12:07:18.935Z,98161.17
2018-12-16T12:09:46.991Z,98160.91
2018-12-16T12:12:15.216Z,98158.26
2018-12-16T12:14:43.447Z,98159.75
2018-12-16T12:17:11.536Z,98165.48
2018-12-16T12:19:40.282Z,98163.95
2018-12-16T12:22:08.834Z,98175.20
2018-12-16T12:24:36.951Z,98171.66
2018-12-16T12:27:05.035Z,98163.73
2018-12-16T12:29:33.071Z,98162.70
2018-12-16T12:32:01.179Z,98167.20
2018-12-16T12:34:29.224Z,98164.03
2018-12-16T12:36:57.319Z,98162.88
2018-12-16T12:39:25.385Z,98167.90
2018-12-16T12:41:53.835Z,98169.11
2018-12-16T12:44:21.890Z,98161.78
2018-12-16T12:46:49.970Z,98163.48
2018-12-16T12:49:18.055Z,98172.66
2018-12-16T12:51:46.307Z,98172.00
2018-12-16T12:54:14.378Z,98175.09
2018-12-16T12:56:42.476Z,98178.67
2018-12-16T12:59:10.547Z,98174.75
2018-12-16T13:01:38.602Z,98171.51
2018-12-16T13:04:06.695Z,98175.27
2018-12-16T13:06:34.861Z,98176.14
2018-12-16T13:09:03.239Z,98176.33
2018-12-16T13:11:31.314Z,98176.08
2018-12-16T13:13:59.619Z,98176.89
2018-12-16T13:16:27.715Z,98176.14
2018-12-16T13:18:55.865Z,98172.37
2018-12-16T13:21:23.933Z,98181.91
2018-12-16T13:23:51.998Z,98184.78
2018-12-16T13:26:20.079Z,98180.00
2018-12-16T13:28:48.148Z,98181.91
2018-12-16T13:31:16.247Z,98188.37
2018-12-16T13:33:44.363Z,98189.73
2018-12-16T13:36:12.544Z,98192.19
2018-12-16T13:38:40.623Z,98195.63
2018-12-16T13:41:08.723Z,98192.09
2018-12-16T13:43:36.769Z,98193.01
2018-12-16T13:46:05.033Z,98191.32
2018-12-16T13:48:33.170Z,98192.11
2018-12-16T13:51:01.717Z,98194.81
2018-12-16T13:53:29.791Z,98191.34
2018-12-16T13:55:57.866Z,98192.08
2018-12-16T13:58:26.014Z,98188.56
2018-12-16T14:00:54.207Z,98191.45
2018-12-16T14:03:22.243Z,98202.53
2018-12-16T14:05:50.294Z,98198.20
2018-12-16T14:08:18.362Z,98199.94
2018-12-16T14:10:46.459Z,98194.30
2018-12-16T14:13:14.530Z,98197.66
2018-12-16T14:15:42.598Z,98200.20
2018-12-16T14:18:10.703Z,98198.23
2018-12-16T14:20:38.767Z,98196.70
2018-12-16T14:23:06.863Z,98192.61
2018-12-16T14:25:34.906Z,98204.00
2018-12-16T14:28:02.967Z,98211.63
2018-12-16T14:30:31.051Z,98202.94
2018-12-16T14:32:59.137Z,98197.56
2018-12-16T14:35:27.304Z,98181.86
2018-12-16T14:37:55.740Z,98181.96
2018-12-16T14:40:23.847Z,98180.79
2018-12-16T14:42:51.923Z,98177.42
2018-12-16T14:45:20.204Z,98176.92
2018-12-16T14:47:48.262Z,98183.95
2018-12-16T14:50:16.346Z,98182.15
2018-12-16T14:52:44.507Z,98197.40
2018-12-16T14:55:12.586Z,98201.28
2018-12-16T14:57:40.630Z,98195.19
2018-12-16T15:00:09.463Z,98198.33
2018-12-16T15:02:37.522Z,98203.91
2018-12-16T15:05:06.080Z,98206.09
2018-12-16T15:07:34.279Z,98208.48
2018-12-16T15:10:03.129Z,98215.94
2018-12-16T15:12:31.211Z,98214.16
2018-12-16T15:14:59.331Z,98222.14
2018-12-16T15:17:27.587Z,98224.87
2018-12-16T15:19:55.659Z,98227.48
2018-12-16T15:22:23.739Z,98227.20
2018-12-16T15:24:51.815Z,98233.28
2018-12-16T15:27:19.867Z,98237.62
2018-12-16T15:29:47.992Z,98234.50
2018-12-16T15:32:16.118Z,98229.59
2018-12-16T15:34:44.212Z,98228.28
2018-12-16T15:37:12.372Z,98236.36
2018-12-16T15:39:40.428Z,98228.09
2018-12-16T15:42:08.502Z,98235.86
2018-12-16T15:44:36.570Z,98236.45
2018-12-16T15:47:04.659Z,98237.77
2018-12-16T15:49:32.723Z,98239.27
2018-12-16T15:52:00.806Z,98241.17
2018-12-16T15:54:28.862Z,98251.73
2018-12-16T15:56:57.007Z,98250.36
2018-12-16T15:59:25.067Z,98259.77
2018-12-16T16:01:53.255Z,98255.91
2018-12-16T16:04:21.352Z,98260.05
2018-12-16T16:06:49.422Z,98265.09
2018-12-16T16:09:17.511Z,98260.55
2018-12-16T16:11:45.583Z,98261.16
2018-12-16T16:14:13.701Z,98262.73
2018-12-16T16:16:41.799Z,98264.94
2018-12-16T16:19:09.874Z,98272.25
2018-12-16T16:21:37.924Z,98270.41
2018-12-16T16:24:06.445Z,98275.36
2018-12-16T16:26:34.521Z,98276.41
2018-12-16T16:29:02.576Z,98278.58
2018-12-16T16:31:30.647Z,98278.02
2018-12-16T16:33:58.718Z,98282.00
2018-12-16T16:36:26.908Z,98278.90
2018-12-16T16:38:55.063Z,98291.39
2018-12-16T16:41:23.358Z,98295.45
2018-12-16T16:43:51.439Z,98295.13
2018-12-16T16:46:19.666Z,98298.58
2018-12-16T16:48:47.868Z,98297.64
2018-12-16T16:51:15.951Z,98301.27
2018-12-16T16:53:44.115Z,98306.36
2018-12-16T16:56:12.155Z,98303.54
2018-12-16T16:58:40.239Z,98302.42
2018-12-16T17:01:08.331Z,98308.98
2018-12-16T17:03:36.404Z,98314.58
2018-12-16T17:06:04.477Z,98321.55
2018-12-16T17:08:32.571Z,98323.91
2018-12-16T17:11:01.015Z,98322.75
2018-12-16T17:13:29.066Z,98328.23
2018-12-16T17:15:57.187Z,98325.78
2018-12-16T17:18:25.307Z,98322.78
2018-12-16T17:20:53.391Z,98324.58
2018-12-16T17:23:21.439Z,98328.75
2018-12-16T17:25:49.556Z,98336.39
2018-12-16T17:28:17.830Z,98337.52
2018-12-16T17:30:45.906Z,98344.30
2018-12-16T17:33:14.250Z,98339.18
2018-12-16T17:35:42.555Z,98346.59
2018-12-16T17:38:10.630Z,98346.08
2018-12-16T17:40:38.690Z,98349.65
2018-12-16T17:43:06.770Z,98348.06
2018-12-16T17:45:35.423Z,98346.84
2018-12-16T17:48:03.568Z,98353.83
2018-12-16T17:50:31.678Z,98354.84
2018-12-16T17:52:59.750Z,98352.00
2018-12-16T17:55:27.843Z,98351.73
2018-12-16T17:57:56.499Z,98354.56
2018-12-16T18:00:24.759Z,98358.08
2018-12-16T18:02:52.800Z,98357.20
2018-12-16T18:05:20.939Z,98361.17
2018-12-16T18:07:49.031Z,98361.54
2018-12-16T18:10:17.094Z,98358.44
2018-12-16T18:12:45.146Z,98358.81
2018-12-16T18:15:13.250Z,98361.66
2018-12-16T18:17:41.375Z,98360.73
2018-12-16T18:20:10.031Z,98364.83
2018-12-16T18:22:38.212Z,98366.23
2018-12-16T18:25:06.443Z,98367.51
2018-12-16T18:27:34.639Z,98371.07
2018-12-16T18:30:04.264Z,98377.11
2018-12-16T18:32:32.451Z,98374.11
2018-12-16T18:35:00.504Z,98379.31
2018-12-16T18:37:28.812Z,98373.58
2018-12-16T18:39:56.964Z,98380.03
2018-12-16T18:42:25.034Z,98375.01
2018-12-16T18:44:53.118Z,98375.09
2018-12-16T18:47:21.190Z,98381.66
2018-12-16T18:49:49.250Z,98379.27
2018-12-16T18:52:17.380Z,98376.52
2018-12-16T18:54:45.458Z,98381.28
2018-12-16T18:57:13.626Z,98380.78
2018-12-16T18:59:41.794Z,98390.20
2018-12-16T19:02:09.867Z,98386.00
2018-12-16T19:04:37.955Z,98385.78
2018-12-16T19:07:06.112Z,98390.90
2018-12-16T19:09:34.278Z,98389.27
2018-12-16T19:12:02.458Z,98394.75
2018-12-16T19:14:30.943Z,98391.59
2018-12-16T19:16:59.002Z,98393.83
2018-12-16T19:19:27.476Z,98387.92
2018-12-16T19:21:55.870Z,98382.39
2018-12-16T19:24:23.935Z,98381.83
2018-12-16T19:26:58.134Z,98374.19
2018-12-16T19:29:22.249Z,98377.84
2018-12-16T19:31:50.410Z,98378.55
2018-12-16T19:34:18.468Z,98377.28
2018-12-16T19:36:46.751Z,98378.47
2018-12-16T19:39:14.819Z,98377.24
2018-12-16T19:41:42.903Z,98379.03
2018-12-16T19:44:11.087Z,98384.63
2018-12-16T19:46:39.356Z,98385.08
2018-12-16T19:49:07.531Z,98390.66
2018-12-16T19:51:35.787Z,98390.45
2018-12-16T19:54:04.035Z,98390.13
2018-12-16T19:56:32.119Z,98391.77
2018-12-16T19:59:00.529Z,98390.23
2018-12-16T20:01:28.703Z,98392.25
2018-12-16T20:03:58.674Z,98388.07
2018-12-16T20:06:28.623Z,98394.32
2018-12-16T20:08:56.919Z,98389.55
2018-12-16T20:11:25.090Z,98389.42
2018-12-16T20:13:53.692Z,98396.53
2018-12-16T20:16:21.810Z,98390.54
2018-12-16T20:18:49.986Z,98393.59
2018-12-16T20:21:18.103Z,98395.23
2018-12-16T20:23:46.176Z,98392.63
2018-12-16T20:26:14.227Z,98396.84
2018-12-16T20:28:42.318Z,98399.78
2018-12-16T20:31:10.469Z,98397.77
2018-12-16T20:33:38.539Z,98402.56
2018-12-16T20:36:06.615Z,98405.64
2018-12-16T20:38:34.687Z,98405.58
2018-12-16T20:41:02.762Z,98411.77
2018-12-16T20:43:30.868Z,98410.73
2018-12-16T20:45:58.929Z,98409.18
2018-12-16T20:48:26.991Z,98410.70
2018-12-16T20:50:55.087Z,98408.84
2018-12-16T20:53:23.116Z,98414.56
2018-12-16T20:55:51.291Z,98411.81
2018-12-16T20:58:19.772Z,98412.78
2018-12-16T21:00:47.842Z,98411.94
2018-12-16T21:03:15.915Z,98414.19
2018-12-16T21:05:44.007Z,98419.37
2018-12-16T21:08:12.076Z,98417.13
2018-12-16T21:10:40.144Z,98414.14
2018-12-16T21:13:10.087Z,98415.78
2018-12-16T21:15:40.036Z,98413.08
2018-12-16T21:18:09.962Z,98414.41
2018-12-16T21:20:38.040Z,98411.92
2018-12-16T21:23:07.097Z,98418.94
2018-12-16T21:25:36.395Z,98422.53
2018-12-16T21:28:04.994Z,98419.92
2018-12-16T21:30:33.080Z,98420.14
2018-12-16T21:33:01.268Z,98423.32
2018-12-16T21:35:29.356Z,98426.93
2018-12-16T21:37:57.402Z,98429.61
2018-12-16T21:40:25.503Z,98427.34
2018-12-16T21:42:54.047Z,98426.95
2018-12-16T21:45:22.126Z,98430.63
2018-12-16T21:47:50.316Z,98434.83
2018-12-16T21:50:18.699Z,98437.55
2018-12-16T21:52:46.742Z,98435.69
2018-12-16T21:55:14.962Z,98439.82
2018-12-16T21:57:43.054Z,98441.82
2018-12-16T22:00:11.294Z,98444.42
2018-12-16T22:02:39.465Z,98446.20
2018-12-16T22:05:08.503Z,98448.70
2018-12-16T22:07:36.611Z,98451.16
2018-12-16T22:10:06.015Z,98455.42
2018-12-16T22:12:34.186Z,98464.01
2018-12-16T22:15:02.490Z,98463.56
2018-12-16T22:17:30.640Z,98465.88
2018-12-16T22:19:58.745Z,98460.53
2018-12-16T22:22:26.832Z,98463.55
2018-12-16T22:24:54.940Z,98460.78
2018-12-16T22:27:23.095Z,98461.52
2018-12-16T22:29:51.476Z,98461.68
2018-12-16T22:32:19.651Z,98462.52
2018-12-16T22:34:47.743Z,98466.55
2018-12-16T22:37:16.115Z,98467.70
2018-12-16T22:39:44.191Z,98472.03
2018-12-16T22:42:12.274Z,98467.50
2018-12-16T22:44:40.348Z,98465.94
2018-12-16T22:47:08.633Z,98465.38
2018-12-16T22:49:36.690Z,98467.52
2018-12-16T22:52:04.751Z,98462.59
2018-12-16T22:54:32.928Z,98464.72
2018-12-16T22:57:01.011Z,98463.31
2018-12-16T22:59:29.067Z,98465.33
2018-12-16T23:01:57.271Z,98462.16
2018-12-16T23:04:25.414Z,98460.72
2018-12-16T23:06:53.508Z,98459.76
2018-12-16T23:09:21.581Z,98459.67
2018-12-16T23:11:49.663Z,98464.42
2018-12-16T23:14:17.802Z,98467.41
2018-12-16T23:16:45.864Z,98472.77
2018-12-16T23:19:13.959Z,98471.03
2018-12-16T23:21:42.039Z,98473.33
2018-12-16T23:24:10.112Z,98475.62
2018-12-16T23:26:38.217Z,98470.27
2018-12-16T23:29:06.297Z,98471.72
2018-12-16T23:31:34.613Z,98467.66
2018-12-16T23:34:02.707Z,98472.00
2018-12-16T23:36:30.876Z,98469.75
2018-12-16T23:38:58.915Z,98472.12
2018-12-16T23:41:26.986Z,98470.63
2018-12-16T23:43:55.055Z,98473.03
2018-12-16T23:46:23.242Z,98474.96
2018-12-16T23:48:51.439Z,98481.95
2018-12-16T23:51:19.581Z,98479.31
2018-12-16T23:53:47.784Z,98484.44
2018-12-16T23:56:15.859Z,98483.75
2018-12-16T23:58:43.919Z,98483.36
